London Airport
CYXU : now visible

Airfield :











YOU CAN JOIN US ON...

 
LOGIN :

Register | Disclaimer

   EN    FR    IT 

 









Legend :    VFR   Marginal VFR   IFR   Intensive IFR   Very Intensive IFR
Visi :
Ceiling :
>= 8 km
>= 3000ft
5 to 8 km
1000 to 3000 ft
1500m to 5 km
500 to 1000 ft
800 to 1500m
200 to 500 ft
< 800m
< 200 ft
Symbols :   Thunderstorms  Fog  Heavy snow  Heavy precipitations  Wind > 20 kt






- Airport Elevation : 912 ft
- IATA code : YXU


CYXU - London

CURRENT METAR :
  • 170300Z 27013KT 15SM FEW031 OVC069 10/05 A2989 RMK SC1AC7 SLP128

EXPIRED METARs :
  • 170200Z 27011G17KT 15SM BKN064 10/06 A2989 RMK SC6 SLP125
  • 170100Z 28008KT 15SM SCT070 10/06 A2987 RMK AC4 SLP120

TAF TAF CYXU
Valid from the 17 at 00:00 until the 18 at 00:00 UTC


162340Z 1700/1724 29012G22KT P6SM SCT025 BKN040
TEMPO 1700/1702 P6SM -SHRA BKN015 BKN040
FM170200 28010G20KT P6SM -SHRA BKN015 BKN040
TEMPO 1702/1722 P6SM NSW SCT020 BKN040
BECMG 1714/1716 28015G25KT
FM172200 28010G20KT P6SM -SHRA BKN030 RMK NXT FCST BY 170600Z
CZYZ FIR / North America



MET'MAP, your aeronautical weather chart ! - Copyright ORBIFLY December 2007 - Disclaimer

ORBIFLY MET'MAP TEAM :

Programming & Development : Alexandra Zaïnal
Concept & original design : Baudouin d'Aumeries
Assistance for programming : Marc-Olivier Méhu
Technical & hardware support : Manuel Goepfert

Contact : metmap@orbifly.com




SOURCES & CREDITS :

   NOAA       Earth
Advisory